sensor_id;sensor_type;location;lat;lon;timestamp;temperature;humidity
26691;DHT22;14307;51.718;8.938;2024-03-25T00:00:45;4.50;99.90
26691;DHT22;14307;51.718;8.938;2024-03-25T00:03:11;4.50;99.90
26691;DHT22;14307;51.718;8.938;2024-03-25T00:05:37;4.50;99.90
26691;DHT22;14307;51.718;8.938;2024-03-25T00:08:04;4.40;99.90
26691;DHT22;14307;51.718;8.938;2024-03-25T00:10:30;4.40;99.90
26691;DHT22;14307;51.718;8.938;2024-03-25T00:12:56;4.50;99.90
26691;DHT22;14307;51.718;8.938;2024-03-25T00:15:22;4.40;99.90
26691;DHT22;14307;51.718;8.938;2024-03-25T00:17:51;4.40;99.90
26691;DHT22;14307;51.718;8.938;2024-03-25T00:20:18;4.40;99.90
26691;DHT22;14307;51.718;8.938;2024-03-25T00:22:44;4.40;99.90
26691;DHT22;14307;51.718;8.938;2024-03-25T00:25:10;4.40;99.90
26691;DHT22;14307;51.718;8.938;2024-03-25T00:27:37;4.40;99.90
26691;DHT22;14307;51.718;8.938;2024-03-25T00:30:04;4.40;99.90
26691;DHT22;14307;51.718;8.938;2024-03-25T00:32:31;4.40;99.90
26691;DHT22;14307;51.718;8.938;2024-03-25T00:34:56;4.40;99.90
26691;DHT22;14307;51.718;8.938;2024-03-25T00:37:23;4.40;99.90
26691;DHT22;14307;51.718;8.938;2024-03-25T00:39:50;4.40;99.90
26691;DHT22;14307;51.718;8.938;2024-03-25T00:42:16;4.40;99.90
26691;DHT22;14307;51.718;8.938;2024-03-25T00:44:42;4.40;99.90
26691;DHT22;14307;51.718;8.938;2024-03-25T00:47:08;4.50;99.90
26691;DHT22;14307;51.718;8.938;2024-03-25T00:49:35;4.40;99.90
26691;DHT22;14307;51.718;8.938;2024-03-25T00:52:01;4.50;99.90
26691;DHT22;14307;51.718;8.938;2024-03-25T00:54:28;4.40;99.90
26691;DHT22;14307;51.718;8.938;2024-03-25T00:56:54;4.50;99.90
26691;DHT22;14307;51.718;8.938;2024-03-25T00:59:20;4.50;99.90
26691;DHT22;14307;51.718;8.938;2024-03-25T01:01:47;4.50;99.90
26691;DHT22;14307;51.718;8.938;2024-03-25T01:04:13;4.50;99.90
26691;DHT22;14307;51.718;8.938;2024-03-25T01:06:39;4.50;99.90
26691;DHT22;14307;51.718;8.938;2024-03-25T01:09:05;4.50;99.90
26691;DHT22;14307;51.718;8.938;2024-03-25T01:11:33;4.50;99.90
26691;DHT22;14307;51.718;8.938;2024-03-25T01:13:59;4.40;99.90
26691;DHT22;14307;51.718;8.938;2024-03-25T01:16:26;4.50;99.90
26691;DHT22;14307;51.718;8.938;2024-03-25T01:18:53;4.40;99.90
26691;DHT22;14307;51.718;8.938;2024-03-25T01:21:19;4.40;99.90
26691;DHT22;14307;51.718;8.938;2024-03-25T01:23:45;4.40;99.90
26691;DHT22;14307;51.718;8.938;2024-03-25T01:26:12;4.40;99.90
26691;DHT22;14307;51.718;8.938;2024-03-25T01:28:38;4.40;99.90
26691;DHT22;14307;51.718;8.938;2024-03-25T01:31:04;4.40;99.90
26691;DHT22;14307;51.718;8.938;2024-03-25T01:33:30;4.40;99.90
26691;DHT22;14307;51.718;8.938;2024-03-25T01:35:56;4.40;99.90
26691;DHT22;14307;51.718;8.938;2024-03-25T01:38:22;4.40;99.90
26691;DHT22;14307;51.718;8.938;2024-03-25T01:40:49;4.40;99.90
26691;DHT22;14307;51.718;8.938;2024-03-25T01:43:16;4.40;99.90
26691;DHT22;14307;51.718;8.938;2024-03-25T01:45:42;4.40;99.90
26691;DHT22;14307;51.718;8.938;2024-03-25T01:48:09;4.50;99.90
26691;DHT22;14307;51.718;8.938;2024-03-25T01:50:41;4.40;99.90
26691;DHT22;14307;51.718;8.938;2024-03-25T01:53:08;4.40;99.90
26691;DHT22;14307;51.718;8.938;2024-03-25T01:55:35;4.50;99.90
26691;DHT22;14307;51.718;8.938;2024-03-25T01:58:02;4.40;99.90
26691;DHT22;14307;51.718;8.938;2024-03-25T02:00:30;4.40;99.90
26691;DHT22;14307;51.718;8.938;2024-03-25T02:02:57;4.40;99.90
26691;DHT22;14307;51.718;8.938;2024-03-25T02:05:24;4.40;99.90
26691;DHT22;14307;51.718;8.938;2024-03-25T02:07:51;4.50;99.90
26691;DHT22;14307;51.718;8.938;2024-03-25T02:10:17;4.40;99.90
26691;DHT22;14307;51.718;8.938;2024-03-25T02:12:45;4.40;99.90
26691;DHT22;14307;51.718;8.938;2024-03-25T02:15:12;4.40;99.90
26691;DHT22;14307;51.718;8.938;2024-03-25T02:17:41;4.40;99.90
26691;DHT22;14307;51.718;8.938;2024-03-25T02:20:08;4.40;99.90
26691;DHT22;14307;51.718;8.938;2024-03-25T02:22:37;4.40;99.90
26691;DHT22;14307;51.718;8.938;2024-03-25T02:25:08;4.50;99.90
26691;DHT22;14307;51.718;8.938;2024-03-25T02:27:35;4.40;99.90
26691;DHT22;14307;51.718;8.938;2024-03-25T02:30:12;4.40;99.90
26691;DHT22;14307;51.718;8.938;2024-03-25T02:32:39;4.40;99.90
26691;DHT22;14307;51.718;8.938;2024-03-25T02:35:09;4.30;99.90
26691;DHT22;14307;51.718;8.938;2024-03-25T02:37:37;4.40;99.90
26691;DHT22;14307;51.718;8.938;2024-03-25T02:40:04;4.40;99.90
26691;DHT22;14307;51.718;8.938;2024-03-25T02:42:33;4.30;99.90
26691;DHT22;14307;51.718;8.938;2024-03-25T02:44:59;4.30;99.90
26691;DHT22;14307;51.718;8.938;2024-03-25T02:47:27;4.30;99.90
26691;DHT22;14307;51.718;8.938;2024-03-25T02:49:53;4.20;99.90
26691;DHT22;14307;51.718;8.938;2024-03-25T02:52:20;4.30;99.90
26691;DHT22;14307;51.718;8.938;2024-03-25T02:54:46;4.40;99.90
26691;DHT22;14307;51.718;8.938;2024-03-25T02:57:12;4.40;99.90
26691;DHT22;14307;51.718;8.938;2024-03-25T02:59:39;4.40;99.90
26691;DHT22;14307;51.718;8.938;2024-03-25T03:02:05;4.30;99.90
26691;DHT22;14307;51.718;8.938;2024-03-25T03:04:31;4.40;99.90
26691;DHT22;14307;51.718;8.938;2024-03-25T03:06:58;4.30;99.90
26691;DHT22;14307;51.718;8.938;2024-03-25T03:09:24;4.30;99.90
26691;DHT22;14307;51.718;8.938;2024-03-25T03:11:51;4.30;99.90
26691;DHT22;14307;51.718;8.938;2024-03-25T03:14:17;4.30;99.90
26691;DHT22;14307;51.718;8.938;2024-03-25T03:16:43;4.40;99.90
26691;DHT22;14307;51.718;8.938;2024-03-25T03:19:09;4.40;99.90
26691;DHT22;14307;51.718;8.938;2024-03-25T03:21:35;4.30;99.90
26691;DHT22;14307;51.718;8.938;2024-03-25T03:24:03;4.30;99.90
26691;DHT22;14307;51.718;8.938;2024-03-25T03:26:29;4.30;99.90
26691;DHT22;14307;51.718;8.938;2024-03-25T03:28:56;4.30;99.90
26691;DHT22;14307;51.718;8.938;2024-03-25T03:31:22;4.30;99.90
26691;DHT22;14307;51.718;8.938;2024-03-25T03:33:49;4.30;99.90
26691;DHT22;14307;51.718;8.938;2024-03-25T03:36:17;4.30;99.90
26691;DHT22;14307;51.718;8.938;2024-03-25T03:38:43;4.30;99.90
26691;DHT22;14307;51.718;8.938;2024-03-25T03:41:09;4.30;99.90
26691;DHT22;14307;51.718;8.938;2024-03-25T03:43:36;4.30;99.90
26691;DHT22;14307;51.718;8.938;2024-03-25T03:46:03;4.30;99.90
26691;DHT22;14307;51.718;8.938;2024-03-25T03:48:30;4.30;99.90
26691;DHT22;14307;51.718;8.938;2024-03-25T03:50:56;4.30;99.90
26691;DHT22;14307;51.718;8.938;2024-03-25T03:53:23;4.30;99.90
26691;DHT22;14307;51.718;8.938;2024-03-25T03:55:57;4.20;99.90
26691;DHT22;14307;51.718;8.938;2024-03-25T03:58:24;4.30;99.90
26691;DHT22;14307;51.718;8.938;2024-03-25T04:00:52;4.30;99.90
26691;DHT22;14307;51.718;8.938;2024-03-25T04:03:21;4.30;99.90
26691;DHT22;14307;51.718;8.938;2024-03-25T04:05:47;4.30;99.90
26691;DHT22;14307;51.718;8.938;2024-03-25T04:08:13;4.30;99.90
26691;DHT22;14307;51.718;8.938;2024-03-25T04:10:40;4.30;99.90
26691;DHT22;14307;51.718;8.938;2024-03-25T04:13:07;4.20;99.90
26691;DHT22;14307;51.718;8.938;2024-03-25T04:15:41;4.30;99.90
26691;DHT22;14307;51.718;8.938;2024-03-25T04:18:08;4.20;99.90
26691;DHT22;14307;51.718;8.938;2024-03-25T04:20:39;4.20;99.90
26691;DHT22;14307;51.718;8.938;2024-03-25T04:23:06;4.20;99.90
26691;DHT22;14307;51.718;8.938;2024-03-25T04:25:35;4.20;99.90
26691;DHT22;14307;51.718;8.938;2024-03-25T04:28:05;4.20;99.90
26691;DHT22;14307;51.718;8.938;2024-03-25T04:30:34;4.20;99.90
26691;DHT22;14307;51.718;8.938;2024-03-25T04:33:01;4.10;99.90
26691;DHT22;14307;51.718;8.938;2024-03-25T04:35:27;4.10;99.90
26691;DHT22;14307;51.718;8.938;2024-03-25T04:37:54;4.10;99.90
26691;DHT22;14307;51.718;8.938;2024-03-25T04:40:23;4.10;99.90
26691;DHT22;14307;51.718;8.938;2024-03-25T04:42:49;4.10;99.90
26691;DHT22;14307;51.718;8.938;2024-03-25T04:45:15;4.10;99.90
26691;DHT22;14307;51.718;8.938;2024-03-25T04:47:41;4.10;99.90
26691;DHT22;14307;51.718;8.938;2024-03-25T04:50:08;4.10;99.90
26691;DHT22;14307;51.718;8.938;2024-03-25T04:52:35;4.10;99.90
26691;DHT22;14307;51.718;8.938;2024-03-25T04:55:01;4.00;99.90
26691;DHT22;14307;51.718;8.938;2024-03-25T04:57:27;4.00;99.90
26691;DHT22;14307;51.718;8.938;2024-03-25T04:59:53;4.00;99.90
26691;DHT22;14307;51.718;8.938;2024-03-25T05:02:20;4.00;99.90
26691;DHT22;14307;51.718;8.938;2024-03-25T05:04:46;4.00;99.90
26691;DHT22;14307;51.718;8.938;2024-03-25T05:07:12;4.00;99.90
26691;DHT22;14307;51.718;8.938;2024-03-25T05:09:38;4.00;99.90
26691;DHT22;14307;51.718;8.938;2024-03-25T05:12:04;4.00;99.90
26691;DHT22;14307;51.718;8.938;2024-03-25T05:14:31;4.00;99.90
26691;DHT22;14307;51.718;8.938;2024-03-25T05:16:57;4.10;99.90
26691;DHT22;14307;51.718;8.938;2024-03-25T05:19:23;4.10;99.90
26691;DHT22;14307;51.718;8.938;2024-03-25T05:21:50;4.10;99.90
26691;DHT22;14307;51.718;8.938;2024-03-25T05:24:16;4.10;99.90
26691;DHT22;14307;51.718;8.938;2024-03-25T05:26:42;4.10;99.90
26691;DHT22;14307;51.718;8.938;2024-03-25T05:29:08;4.10;99.90
26691;DHT22;14307;51.718;8.938;2024-03-25T05:31:35;4.10;99.90
26691;DHT22;14307;51.718;8.938;2024-03-25T05:34:02;4.10;99.90
26691;DHT22;14307;51.718;8.938;2024-03-25T05:36:34;4.10;99.90
26691;DHT22;14307;51.718;8.938;2024-03-25T05:39:01;4.10;99.90
26691;DHT22;14307;51.718;8.938;2024-03-25T05:41:28;4.10;99.90
26691;DHT22;14307;51.718;8.938;2024-03-25T05:43:54;4.10;99.90
26691;DHT22;14307;51.718;8.938;2024-03-25T05:46:20;4.20;99.90
26691;DHT22;14307;51.718;8.938;2024-03-25T05:48:46;4.20;99.90
26691;DHT22;14307;51.718;8.938;2024-03-25T05:51:13;4.10;99.90
26691;DHT22;14307;51.718;8.938;2024-03-25T05:53:40;4.10;99.90
26691;DHT22;14307;51.718;8.938;2024-03-25T05:56:07;4.10;99.90
26691;DHT22;14307;51.718;8.938;2024-03-25T05:58:33;4.10;99.90
26691;DHT22;14307;51.718;8.938;2024-03-25T06:00:59;4.10;99.90
26691;DHT22;14307;51.718;8.938;2024-03-25T06:03:27;4.10;99.90
26691;DHT22;14307;51.718;8.938;2024-03-25T06:05:53;4.10;99.90
26691;DHT22;14307;51.718;8.938;2024-03-25T06:08:19;4.10;99.90
26691;DHT22;14307;51.718;8.938;2024-03-25T06:10:51;4.20;99.90
26691;DHT22;14307;51.718;8.938;2024-03-25T06:13:17;4.10;99.90
26691;DHT22;14307;51.718;8.938;2024-03-25T06:15:44;4.10;99.90
26691;DHT22;14307;51.718;8.938;2024-03-25T06:18:10;4.20;99.90
26691;DHT22;14307;51.718;8.938;2024-03-25T06:20:36;4.20;99.90
26691;DHT22;14307;51.718;8.938;2024-03-25T06:23:02;4.20;99.90
26691;DHT22;14307;51.718;8.938;2024-03-25T06:25:30;4.20;99.90
26691;DHT22;14307;51.718;8.938;2024-03-25T06:27:56;4.20;99.90
26691;DHT22;14307;51.718;8.938;2024-03-25T06:30:23;4.20;99.90
26691;DHT22;14307;51.718;8.938;2024-03-25T06:33:08;4.20;99.90
26691;DHT22;14307;51.718;8.938;2024-03-25T06:35:52;4.20;99.90
26691;DHT22;14307;51.718;8.938;2024-03-25T06:38:20;4.30;99.90
26691;DHT22;14307;51.718;8.938;2024-03-25T06:40:46;4.30;99.90
26691;DHT22;14307;51.718;8.938;2024-03-25T06:43:13;4.30;99.90
26691;DHT22;14307;51.718;8.938;2024-03-25T06:45:42;4.30;99.90
26691;DHT22;14307;51.718;8.938;2024-03-25T06:48:08;4.30;99.90
26691;DHT22;14307;51.718;8.938;2024-03-25T06:50:34;4.40;99.90
26691;DHT22;14307;51.718;8.938;2024-03-25T06:53:00;4.40;99.90
26691;DHT22;14307;51.718;8.938;2024-03-25T06:55:27;4.40;99.90
26691;DHT22;14307;51.718;8.938;2024-03-25T06:57:54;4.40;99.90
26691;DHT22;14307;51.718;8.938;2024-03-25T07:00:20;4.40;99.90
26691;DHT22;14307;51.718;8.938;2024-03-25T07:02:48;4.50;99.90
26691;DHT22;14307;51.718;8.938;2024-03-25T07:05:15;4.50;99.90
26691;DHT22;14307;51.718;8.938;2024-03-25T07:07:41;4.50;99.90
26691;DHT22;14307;51.718;8.938;2024-03-25T07:10:07;4.50;99.90
26691;DHT22;14307;51.718;8.938;2024-03-25T07:12:34;4.40;99.90
26691;DHT22;14307;51.718;8.938;2024-03-25T07:15:00;4.50;99.90
26691;DHT22;14307;51.718;8.938;2024-03-25T07:17:26;4.70;99.90
26691;DHT22;14307;51.718;8.938;2024-03-25T07:19:53;4.80;99.90
26691;DHT22;14307;51.718;8.938;2024-03-25T07:22:19;4.80;99.90
26691;DHT22;14307;51.718;8.938;2024-03-25T07:24:45;4.80;99.90
26691;DHT22;14307;51.718;8.938;2024-03-25T07:27:11;4.80;99.90
26691;DHT22;14307;51.718;8.938;2024-03-25T07:29:38;4.90;99.90
26691;DHT22;14307;51.718;8.938;2024-03-25T07:32:05;4.80;99.90
26691;DHT22;14307;51.718;8.938;2024-03-25T07:34:31;4.80;99.90
26691;DHT22;14307;51.718;8.938;2024-03-25T07:36:57;4.80;99.90
26691;DHT22;14307;51.718;8.938;2024-03-25T07:39:23;4.80;99.90
26691;DHT22;14307;51.718;8.938;2024-03-25T07:41:53;4.80;99.90
26691;DHT22;14307;51.718;8.938;2024-03-25T07:44:19;5.00;99.90
26691;DHT22;14307;51.718;8.938;2024-03-25T07:46:46;5.10;99.90
26691;DHT22;14307;51.718;8.938;2024-03-25T07:49:11;5.20;99.90
26691;DHT22;14307;51.718;8.938;2024-03-25T07:51:38;5.30;99.90
26691;DHT22;14307;51.718;8.938;2024-03-25T07:54:05;5.50;99.90
26691;DHT22;14307;51.718;8.938;2024-03-25T07:56:32;5.70;99.90
26691;DHT22;14307;51.718;8.938;2024-03-25T07:59:03;5.90;99.90
26691;DHT22;14307;51.718;8.938;2024-03-25T08:01:30;6.00;99.90
26691;DHT22;14307;51.718;8.938;2024-03-25T08:03:56;6.00;99.90
26691;DHT22;14307;51.718;8.938;2024-03-25T08:06:22;6.10;99.90
26691;DHT22;14307;51.718;8.938;2024-03-25T08:08:48;6.20;99.90
26691;DHT22;14307;51.718;8.938;2024-03-25T08:11:14;6.20;99.90
26691;DHT22;14307;51.718;8.938;2024-03-25T08:13:40;6.20;99.90
26691;DHT22;14307;51.718;8.938;2024-03-25T08:16:06;6.20;99.90
26691;DHT22;14307;51.718;8.938;2024-03-25T08:18:33;6.50;99.90
26691;DHT22;14307;51.718;8.938;2024-03-25T08:20:59;6.50;99.90
26691;DHT22;14307;51.718;8.938;2024-03-25T08:23:26;6.60;99.90
26691;DHT22;14307;51.718;8.938;2024-03-25T08:25:52;6.70;99.90
26691;DHT22;14307;51.718;8.938;2024-03-25T08:28:18;6.90;99.90
26691;DHT22;14307;51.718;8.938;2024-03-25T08:30:44;7.00;99.90
26691;DHT22;14307;51.718;8.938;2024-03-25T08:33:10;7.00;99.90
26691;DHT22;14307;51.718;8.938;2024-03-25T08:35:38;7.20;99.90
26691;DHT22;14307;51.718;8.938;2024-03-25T08:38:04;7.40;99.90
26691;DHT22;14307;51.718;8.938;2024-03-25T08:40:32;7.30;99.90
26691;DHT22;14307;51.718;8.938;2024-03-25T08:42:58;7.40;99.90
26691;DHT22;14307;51.718;8.938;2024-03-25T08:45:25;7.70;99.90
26691;DHT22;14307;51.718;8.938;2024-03-25T08:47:51;7.80;99.90
26691;DHT22;14307;51.718;8.938;2024-03-25T08:50:17;7.80;99.90
26691;DHT22;14307;51.718;8.938;2024-03-25T08:52:43;7.70;99.90
26691;DHT22;14307;51.718;8.938;2024-03-25T08:55:09;7.30;99.90
26691;DHT22;14307;51.718;8.938;2024-03-25T08:57:37;7.10;99.90
26691;DHT22;14307;51.718;8.938;2024-03-25T09:00:03;6.80;99.90
26691;DHT22;14307;51.718;8.938;2024-03-25T09:02:30;6.80;99.90
26691;DHT22;14307;51.718;8.938;2024-03-25T09:04:57;6.90;99.90
26691;DHT22;14307;51.718;8.938;2024-03-25T09:07:23;6.80;99.90
26691;DHT22;14307;51.718;8.938;2024-03-25T09:09:50;6.80;99.90
26691;DHT22;14307;51.718;8.938;2024-03-25T09:12:37;6.80;99.90
26691;DHT22;14307;51.718;8.938;2024-03-25T09:15:05;6.90;99.90
26691;DHT22;14307;51.718;8.938;2024-03-25T09:17:31;6.90;99.90
26691;DHT22;14307;51.718;8.938;2024-03-25T09:19:57;6.90;99.90
26691;DHT22;14307;51.718;8.938;2024-03-25T09:22:23;7.20;99.90
26691;DHT22;14307;51.718;8.938;2024-03-25T09:24:50;7.50;99.90
26691;DHT22;14307;51.718;8.938;2024-03-25T09:27:16;7.40;99.90
26691;DHT22;14307;51.718;8.938;2024-03-25T09:29:42;7.40;99.90
26691;DHT22;14307;51.718;8.938;2024-03-25T09:32:08;7.30;99.90
26691;DHT22;14307;51.718;8.938;2024-03-25T09:34:34;7.30;99.90
26691;DHT22;14307;51.718;8.938;2024-03-25T09:37:00;7.20;99.90
26691;DHT22;14307;51.718;8.938;2024-03-25T09:39:27;6.90;99.90
26691;DHT22;14307;51.718;8.938;2024-03-25T09:41:55;6.90;99.90
26691;DHT22;14307;51.718;8.938;2024-03-25T09:44:25;6.80;99.90
26691;DHT22;14307;51.718;8.938;2024-03-25T09:46:52;6.80;99.90
26691;DHT22;14307;51.718;8.938;2024-03-25T09:49:19;6.80;99.90
26691;DHT22;14307;51.718;8.938;2024-03-25T09:51:46;6.70;99.90
26691;DHT22;14307;51.718;8.938;2024-03-25T09:54:12;6.60;99.90
26691;DHT22;14307;51.718;8.938;2024-03-25T09:56:39;6.50;99.90
26691;DHT22;14307;51.718;8.938;2024-03-25T09:59:06;6.60;99.90
26691;DHT22;14307;51.718;8.938;2024-03-25T10:01:33;6.50;99.90
26691;DHT22;14307;51.718;8.938;2024-03-25T10:03:59;6.80;99.90
26691;DHT22;14307;51.718;8.938;2024-03-25T10:06:26;6.80;99.90
26691;DHT22;14307;51.718;8.938;2024-03-25T10:08:57;6.80;99.90
26691;DHT22;14307;51.718;8.938;2024-03-25T10:11:25;6.80;99.90
26691;DHT22;14307;51.718;8.938;2024-03-25T10:13:54;7.00;99.90
26691;DHT22;14307;51.718;8.938;2024-03-25T10:16:22;7.60;99.90
26691;DHT22;14307;51.718;8.938;2024-03-25T10:18:48;8.20;99.90
26691;DHT22;14307;51.718;8.938;2024-03-25T10:21:14;8.40;99.90
26691;DHT22;14307;51.718;8.938;2024-03-25T10:23:40;8.40;99.90
26691;DHT22;14307;51.718;8.938;2024-03-25T10:26:08;8.10;99.90
26691;DHT22;14307;51.718;8.938;2024-03-25T10:28:34;7.80;99.90
26691;DHT22;14307;51.718;8.938;2024-03-25T10:31:04;7.40;99.90
26691;DHT22;14307;51.718;8.938;2024-03-25T10:33:31;7.40;99.90
26691;DHT22;14307;51.718;8.938;2024-03-25T10:35:59;7.40;99.90
26691;DHT22;14307;51.718;8.938;2024-03-25T10:38:27;7.50;99.90
26691;DHT22;14307;51.718;8.938;2024-03-25T10:40:55;7.60;99.90
26691;DHT22;14307;51.718;8.938;2024-03-25T10:43:24;7.50;99.90
26691;DHT22;14307;51.718;8.938;2024-03-25T10:45:55;7.60;99.90
26691;DHT22;14307;51.718;8.938;2024-03-25T10:48:39;7.60;99.90
26691;DHT22;14307;51.718;8.938;2024-03-25T10:51:07;7.50;99.90
26691;DHT22;14307;51.718;8.938;2024-03-25T10:53:36;7.60;99.90
26691;DHT22;14307;51.718;8.938;2024-03-25T10:56:03;7.60;99.90
26691;DHT22;14307;51.718;8.938;2024-03-25T10:58:31;7.70;99.90
26691;DHT22;14307;51.718;8.938;2024-03-25T11:00:58;7.80;99.90
26691;DHT22;14307;51.718;8.938;2024-03-25T11:03:27;7.70;99.90
26691;DHT22;14307;51.718;8.938;2024-03-25T11:05:54;7.50;99.90
26691;DHT22;14307;51.718;8.938;2024-03-25T11:08:20;7.20;99.90
26691;DHT22;14307;51.718;8.938;2024-03-25T11:10:55;7.10;99.90
26691;DHT22;14307;51.718;8.938;2024-03-25T11:13:21;7.20;99.90
26691;DHT22;14307;51.718;8.938;2024-03-25T11:15:48;7.20;99.90
26691;DHT22;14307;51.718;8.938;2024-03-25T11:18:16;7.30;99.90
26691;DHT22;14307;51.718;8.938;2024-03-25T11:20:46;7.50;99.90
26691;DHT22;14307;51.718;8.938;2024-03-25T11:23:13;7.60;99.90
26691;DHT22;14307;51.718;8.938;2024-03-25T11:25:41;7.70;99.90
26691;DHT22;14307;51.718;8.938;2024-03-25T11:28:08;8.00;99.90
26691;DHT22;14307;51.718;8.938;2024-03-25T11:30:37;8.50;99.90
26691;DHT22;14307;51.718;8.938;2024-03-25T11:33:04;8.60;99.90
26691;DHT22;14307;51.718;8.938;2024-03-25T11:35:37;8.60;99.90
26691;DHT22;14307;51.718;8.938;2024-03-25T11:38:03;8.50;99.90
26691;DHT22;14307;51.718;8.938;2024-03-25T11:40:29;8.40;99.90
26691;DHT22;14307;51.718;8.938;2024-03-25T11:42:55;8.10;99.90
26691;DHT22;14307;51.718;8.938;2024-03-25T11:45:22;8.40;99.90
26691;DHT22;14307;51.718;8.938;2024-03-25T11:47:49;8.60;99.90
26691;DHT22;14307;51.718;8.938;2024-03-25T11:50:18;8.60;99.90
26691;DHT22;14307;51.718;8.938;2024-03-25T11:52:44;8.30;99.90
26691;DHT22;14307;51.718;8.938;2024-03-25T11:55:15;8.40;99.90
26691;DHT22;14307;51.718;8.938;2024-03-25T11:57:42;8.30;99.90
26691;DHT22;14307;51.718;8.938;2024-03-25T12:00:09;8.40;99.90
26691;DHT22;14307;51.718;8.938;2024-03-25T12:02:44;8.30;99.90
26691;DHT22;14307;51.718;8.938;2024-03-25T12:05:12;8.10;99.90
26691;DHT22;14307;51.718;8.938;2024-03-25T12:07:38;8.10;99.90
26691;DHT22;14307;51.718;8.938;2024-03-25T12:10:05;8.00;99.90
26691;DHT22;14307;51.718;8.938;2024-03-25T12:12:50;8.20;99.90
26691;DHT22;14307;51.718;8.938;2024-03-25T12:15:22;8.40;99.90
26691;DHT22;14307;51.718;8.938;2024-03-25T12:17:48;8.60;99.90
26691;DHT22;14307;51.718;8.938;2024-03-25T12:20:16;8.90;99.90
26691;DHT22;14307;51.718;8.938;2024-03-25T12:22:44;9.00;99.90
26691;DHT22;14307;51.718;8.938;2024-03-25T12:25:10;9.00;99.90
26691;DHT22;14307;51.718;8.938;2024-03-25T12:27:38;9.10;99.90
26691;DHT22;14307;51.718;8.938;2024-03-25T12:30:08;9.30;99.90
26691;DHT22;14307;51.718;8.938;2024-03-25T12:32:40;9.30;99.90
26691;DHT22;14307;51.718;8.938;2024-03-25T12:35:11;9.40;99.90
26691;DHT22;14307;51.718;8.938;2024-03-25T12:37:41;9.60;99.90
26691;DHT22;14307;51.718;8.938;2024-03-25T12:40:10;9.70;99.90
26691;DHT22;14307;51.718;8.938;2024-03-25T12:42:37;9.90;99.90
26691;DHT22;14307;51.718;8.938;2024-03-25T12:45:04;10.00;99.90
26691;DHT22;14307;51.718;8.938;2024-03-25T12:47:32;10.00;99.90
26691;DHT22;14307;51.718;8.938;2024-03-25T12:49:58;9.80;99.90
26691;DHT22;14307;51.718;8.938;2024-03-25T12:52:25;9.90;99.90
26691;DHT22;14307;51.718;8.938;2024-03-25T12:54:51;10.10;99.90
26691;DHT22;14307;51.718;8.938;2024-03-25T12:57:17;10.20;99.90
26691;DHT22;14307;51.718;8.938;2024-03-25T12:59:44;10.40;99.90
26691;DHT22;14307;51.718;8.938;2024-03-25T13:02:12;10.30;99.90
26691;DHT22;14307;51.718;8.938;2024-03-25T13:04:39;10.20;99.90
26691;DHT22;14307;51.718;8.938;2024-03-25T13:07:07;10.10;99.90
26691;DHT22;14307;51.718;8.938;2024-03-25T13:09:33;9.90;99.90
26691;DHT22;14307;51.718;8.938;2024-03-25T13:12:00;9.70;99.90
26691;DHT22;14307;51.718;8.938;2024-03-25T13:14:26;9.70;99.90
26691;DHT22;14307;51.718;8.938;2024-03-25T13:16:52;9.60;99.90
26691;DHT22;14307;51.718;8.938;2024-03-25T13:19:18;9.40;99.90
26691;DHT22;14307;51.718;8.938;2024-03-25T13:21:44;9.40;99.90
26691;DHT22;14307;51.718;8.938;2024-03-25T13:24:10;9.40;99.90
26691;DHT22;14307;51.718;8.938;2024-03-25T13:26:37;9.50;99.90
26691;DHT22;14307;51.718;8.938;2024-03-25T13:29:03;9.50;99.90
26691;DHT22;14307;51.718;8.938;2024-03-25T13:31:29;9.40;99.90
26691;DHT22;14307;51.718;8.938;2024-03-25T13:33:55;9.70;99.90
26691;DHT22;14307;51.718;8.938;2024-03-25T13:36:21;10.00;99.90
26691;DHT22;14307;51.718;8.938;2024-03-25T13:38:47;10.40;99.90
26691;DHT22;14307;51.718;8.938;2024-03-25T13:41:13;10.80;99.90
26691;DHT22;14307;51.718;8.938;2024-03-25T13:43:43;11.00;99.90
26691;DHT22;14307;51.718;8.938;2024-03-25T13:46:09;11.10;99.90
26691;DHT22;14307;51.718;8.938;2024-03-25T13:48:38;11.20;99.90
26691;DHT22;14307;51.718;8.938;2024-03-25T13:51:04;11.30;99.90
26691;DHT22;14307;51.718;8.938;2024-03-25T13:53:30;11.00;99.90
26691;DHT22;14307;51.718;8.938;2024-03-25T13:55:57;10.90;99.90
26691;DHT22;14307;51.718;8.938;2024-03-25T13:58:23;10.60;99.90
26691;DHT22;14307;51.718;8.938;2024-03-25T14:00:49;10.70;99.90
26691;DHT22;14307;51.718;8.938;2024-03-25T14:03:15;10.50;99.90
26691;DHT22;14307;51.718;8.938;2024-03-25T14:05:42;10.30;99.90
26691;DHT22;14307;51.718;8.938;2024-03-25T14:08:09;10.20;99.90
26691;DHT22;14307;51.718;8.938;2024-03-25T14:10:36;10.10;99.90
26691;DHT22;14307;51.718;8.938;2024-03-25T14:13:02;10.00;99.90
26691;DHT22;14307;51.718;8.938;2024-03-25T14:15:29;9.90;99.90
26691;DHT22;14307;51.718;8.938;2024-03-25T14:17:55;10.00;99.90
26691;DHT22;14307;51.718;8.938;2024-03-25T14:20:21;10.10;99.90
26691;DHT22;14307;51.718;8.938;2024-03-25T14:22:47;10.40;99.90
26691;DHT22;14307;51.718;8.938;2024-03-25T14:25:14;10.40;99.90
26691;DHT22;14307;51.718;8.938;2024-03-25T14:27:41;10.40;99.90
26691;DHT22;14307;51.718;8.938;2024-03-25T14:30:08;10.50;99.90
26691;DHT22;14307;51.718;8.938;2024-03-25T14:32:37;10.70;99.90
26691;DHT22;14307;51.718;8.938;2024-03-25T14:35:06;10.80;99.90
26691;DHT22;14307;51.718;8.938;2024-03-25T14:37:33;11.20;99.90
26691;DHT22;14307;51.718;8.938;2024-03-25T14:39:59;11.30;99.90
26691;DHT22;14307;51.718;8.938;2024-03-25T14:42:27;11.20;99.90
26691;DHT22;14307;51.718;8.938;2024-03-25T14:44:53;11.10;99.90
26691;DHT22;14307;51.718;8.938;2024-03-25T14:47:19;11.20;99.90
26691;DHT22;14307;51.718;8.938;2024-03-25T14:49:45;11.20;99.90
26691;DHT22;14307;51.718;8.938;2024-03-25T14:52:12;11.10;99.90
26691;DHT22;14307;51.718;8.938;2024-03-25T14:54:38;10.90;99.90
26691;DHT22;14307;51.718;8.938;2024-03-25T14:57:04;10.80;99.90
26691;DHT22;14307;51.718;8.938;2024-03-25T14:59:30;10.80;99.90
26691;DHT22;14307;51.718;8.938;2024-03-25T15:01:59;10.70;99.90
26691;DHT22;14307;51.718;8.938;2024-03-25T15:04:27;10.80;99.90
26691;DHT22;14307;51.718;8.938;2024-03-25T15:06:53;10.90;99.90
26691;DHT22;14307;51.718;8.938;2024-03-25T15:09:20;11.00;99.90
26691;DHT22;14307;51.718;8.938;2024-03-25T15:11:47;10.70;99.90
26691;DHT22;14307;51.718;8.938;2024-03-25T15:14:13;10.70;99.90
26691;DHT22;14307;51.718;8.938;2024-03-25T15:16:39;10.70;99.90
26691;DHT22;14307;51.718;8.938;2024-03-25T15:19:05;10.70;99.90
26691;DHT22;14307;51.718;8.938;2024-03-25T15:21:34;10.70;99.90
26691;DHT22;14307;51.718;8.938;2024-03-25T15:24:02;10.60;99.90
26691;DHT22;14307;51.718;8.938;2024-03-25T15:26:29;10.50;99.90
26691;DHT22;14307;51.718;8.938;2024-03-25T15:28:55;10.40;99.90
26691;DHT22;14307;51.718;8.938;2024-03-25T15:31:21;10.20;99.90
26691;DHT22;14307;51.718;8.938;2024-03-25T15:33:47;10.00;99.90
26691;DHT22;14307;51.718;8.938;2024-03-25T15:36:14;10.00;99.90
26691;DHT22;14307;51.718;8.938;2024-03-25T15:38:40;10.00;99.90
26691;DHT22;14307;51.718;8.938;2024-03-25T15:41:06;9.90;99.90
26691;DHT22;14307;51.718;8.938;2024-03-25T15:43:32;9.80;99.90